Flight Track Log - Related Links

Times and Time Zones

All times are in EDT time to prevent confusion due to time zone crossing. See the TYR690 flight status page for this flight to view local times or setup timezone preferences in your user account.

Time Position Orientation Groundspeed Altitude Reporting Facility
EDT Latitude Longitude Course Direction KTS MPH feet Rate Location/Type
Wed 10:08:00 PM 53.6745 27.5149 236° Southwest  Level Estimated
Wed 10:09:00 PM 53.6222 27.3868 235° Southwest  Level Estimated
Wed 10:10:00 PM 53.5697 27.2590 235° Southwest  Level Estimated
Wed 10:11:00 PM 53.5171 27.1315 235° Southwest  Level Estimated
Wed 10:12:00 PM 53.4644 27.0043 235° Southwest  Level Estimated
Wed 10:13:00 PM 53.4115 26.8774 235° Southwest  Level Estimated
Wed 10:14:00 PM 53.3585 26.7508 235° Southwest  Level Estimated
Wed 10:15:00 PM 53.3054 26.6246 235° Southwest  Level Estimated
Wed 10:16:00 PM 53.2521 26.4986 235° Southwest  Level Estimated
Wed 10:17:00 PM 53.1987 26.3730 235° Southwest  Level Estimated
Wed 10:18:00 PM 53.1451 26.2477 235° Southwest  Level Estimated
Wed 10:19:00 PM 53.0914 26.1227 234° Southwest  Level Estimated
Wed 10:20:00 PM 53.0377 25.9980 234° Southwest  Level Estimated
Wed 10:21:00 PM 52.9837 25.8737 234° Southwest  Level Estimated
Wed 10:22:00 PM 52.9297 25.7496 234° Southwest  Level Estimated
Wed 10:23:00 PM 52.8755 25.6259 234° Southwest  Level Estimated
Wed 10:24:00 PM 52.8212 25.5024 234° Southwest  Level Estimated
Wed 10:25:00 PM 52.7667 25.3793 234° Southwest  Level Estimated
Wed 10:26:00 PM 52.7121 25.2565 234° Southwest  Level Estimated
Wed 10:27:00 PM 52.6574 25.1339 234° Southwest  Level Estimated
Wed 10:28:00 PM 52.6026 25.0117 234° Southwest  Level Estimated
Wed 10:29:00 PM 52.5477 24.8898 233° Southwest  Level Estimated
Wed 10:30:00 PM 52.4926 24.7682 233° Southwest  Level Estimated
Wed 10:31:00 PM 52.4374 24.6469 233° Southwest  Level Estimated
Wed 10:32:00 PM 52.3821 24.5259 233° Southwest  Level Estimated
Wed 10:33:00 PM 52.3266 24.4052 233° Southwest  Level Estimated
Wed 10:34:00 PM 52.2710 24.2848 233° Southwest  Level Estimated
Wed 10:35:00 PM 52.2154 24.1647 233° Southwest  Level Estimated
Wed 10:36:00 PM 52.1595 24.0450 233° Southwest  Level Estimated
Wed 10:37:00 PM 52.1036 23.9255 233° Southwest  Level Estimated
Wed 10:38:00 PM 52.0476 23.8063 233° Southwest  Level Estimated
Wed 10:39:00 PM 51.9914 23.6874 233° Southwest  Level Estimated
Wed 10:40:00 PM 51.9351 23.5688 232° Southwest  Level Estimated
Wed 10:41:00 PM 51.8787 23.4505 232° Southwest  Level Estimated
Wed 10:42:00 PM 51.8221 23.3326 232° Southwest  Level Estimated
Wed 10:43:00 PM 51.7655 23.2148 232° Southwest  Level Estimated
Wed 10:44:00 PM 51.7087 23.0975 232° Southwest  Level Estimated
Wed 10:45:00 PM 51.6518 22.9803 232° Southwest  Level Estimated
Wed 10:46:00 PM 51.5948 22.8635 232° Southwest  Level Estimated
Wed 10:47:00 PM 51.5377 22.7470 232° Southwest  Level Estimated
Wed 10:48:00 PM 51.4805 22.6308 232° Southwest  Level Estimated
Wed 10:49:00 PM 51.4231 22.5148 232° Southwest  Level Estimated
Wed 10:50:00 PM 51.3657 22.3992 232° Southwest  Level Estimated
Wed 10:51:00 PM 51.3081 22.2838 231° Southwest  Level Estimated
Wed 10:52:00 PM 51.2504 22.1688 231° Southwest  Level Estimated
Wed 10:53:00 PM 51.1926 22.0540 231° Southwest  Level Estimated
Wed 10:54:00 PM 51.1347 21.9395 231° Southwest  Level Estimated
Wed 10:55:00 PM 51.0767 21.8253 231° Southwest  Level Estimated
Wed 10:56:00 PM 51.0186 21.7114 231° Southwest  Level Estimated
Wed 10:57:00 PM 50.9603 21.5978 231° Southwest  Level Estimated
Wed 10:58:00 PM 50.9020 21.4844 231° Southwest  Level Estimated
Wed 10:59:00 PM 50.8435 21.3713 231° Southwest  Level Estimated
Wed 11:00:00 PM 50.7849 21.2586 231° Southwest  Level Estimated
Wed 11:01:00 PM 50.7263 21.1461 231° Southwest  Level Estimated
Wed 11:02:00 PM 50.6675 21.0339 230° Southwest  Level Estimated
Wed 11:03:00 PM 50.6086 20.9219 230° Southwest  Level Estimated
Wed 11:04:00 PM 50.5496 20.8103 230° Southwest  Level Estimated
Wed 11:05:00 PM 50.4905 20.6989 230° Southwest  Level Estimated
Wed 11:06:00 PM 50.4313 20.5878 230° Southwest  Level Estimated
Wed 11:07:00 PM 50.3719 20.4770 230° Southwest  Level Estimated
Wed 11:08:00 PM 50.3125 20.3664 230° Southwest  Level Estimated
Wed 11:09:00 PM 50.2530 20.2562 230° Southwest  Level Estimated
Wed 11:10:00 PM 50.1933 20.1462 230° Southwest  Level Estimated
Wed 11:11:00 PM 50.1336 20.0365 230° Southwest  Level Estimated
Wed 11:12:00 PM 50.0738 19.9270 230° Southwest  Level Estimated
Wed 11:13:00 PM 50.0138 19.8179 230° Southwest  Level Estimated
Wed 11:14:00 PM 49.9538 19.7090 229° Southwest  Level Estimated
Wed 11:15:00 PM 49.8936 19.6004 229° Southwest  Level Estimated
Wed 11:16:00 PM 49.8334 19.4920 229° Southwest  Level Estimated
Wed 11:17:00 PM 49.7730 19.3839 229° Southwest  Level Estimated
Wed 11:18:00 PM 49.7126 19.2761 229° Southwest  Level Estimated
Wed 11:19:00 PM 49.6520 19.1686 229° Southwest  Level Estimated
Wed 11:20:00 PM 49.5914 19.0613 229° Southwest  Level Estimated
Wed 11:21:00 PM 49.5306 18.9543 229° Southwest  Level Estimated
Wed 11:22:00 PM 49.4698 18.8475 229° Southwest  Level Estimated
Wed 11:23:00 PM 49.4089 18.7411 229° Southwest  Level Estimated
Wed 11:24:00 PM 49.3478 18.6348 229° Southwest  Level Estimated
Wed 11:25:00 PM 49.2867 18.5289 229° Southwest  Level Estimated
Wed 11:26:00 PM 49.2254 18.4232 228° Southwest  Level Estimated
Wed 11:27:00 PM 49.1641 18.3178 228° Southwest  Level Estimated
Wed 11:28:00 PM 49.1027 18.2126 228° Southwest  Level Estimated
Wed 11:29:00 PM 49.0411 18.1077 228° Southwest  Level Estimated
Wed 11:30:00 PM 48.9795 18.0030 228° Southwest  Level Estimated
Wed 11:31:00 PM 48.9178 17.8986 228° Southwest  Level Estimated
Wed 11:32:00 PM 48.8560 17.7945 228° Southwest  Level Estimated
Wed 11:33:00 PM 48.7941 17.6906 228° Southwest  Level Estimated
Wed 11:34:00 PM 48.7321 17.5870 228° Southwest  Level Estimated
Wed 11:35:00 PM 48.6701 17.4837 228° Southwest  Level Estimated
Wed 11:36:00 PM 48.6079 17.3806 228° Southwest  Level Estimated
Wed 11:37:00 PM 48.5456 17.2777 228° Southwest  Level Estimated
Wed 11:38:00 PM 48.4832 17.1751 228° Southwest  Level Estimated
Wed 11:39:00 PM 48.4208 17.0728 227° Southwest  Level Estimated
Wed 11:40:00 PM 48.3582 16.9706 227° Southwest  Level Estimated
Wed 11:41:00 PM 48.2956 16.8688 227° Southwest  Level Estimated
Wed 11:42:00 PM 48.2329 16.7672 227° Southwest  Level Estimated
Wed 11:43:00 PM 48.1701 16.6659 227° Southwest  Level Estimated
Wed 11:44:00 PM 48.1103 16.5697 227° Southwest  Level Estimated
Wed 11:45:00 PM 48.1103 16.5697 North  Level Estimated
Wed 11:46:00 PM 48.1103 16.5697 North  Level Estimated
Wed 11:47:00 PM 48.1103 16.5697 North  Level Estimated
Wed 11:48:00 PM 48.1103 16.5697 North  Level Estimated
Wed 11:49:00 PM 48.1103 16.5697 North  Level Estimated
Wed 11:50:00 PM 48.1103 16.5697 North  Level Estimated
Wed 11:51:00 PM 48.1103 16.5697 North  Level Estimated
Wed 11:52:00 PM 48.1103 16.5697 North  Level Estimated
Wed 11:53:00 PM 48.1103 16.5697 North  Level Estimated

Login

Don't have an account? Register now (free) for customized features, flight alerts, and more!